createdAt,value
2022-11-27T00:01:39.403Z,2.59
2022-11-27T00:04:11.810Z,2.35
2022-11-27T00:06:42.085Z,1.66
2022-11-27T00:09:16.501Z,1.44
2022-11-27T00:11:45.995Z,1.50
2022-11-27T00:14:17.237Z,1.79
2022-11-27T00:16:45.930Z,2.37
2022-11-27T00:19:14.799Z,2.61
2022-11-27T00:21:43.420Z,3.46
2022-11-27T00:24:13.603Z,2.56
2022-11-27T00:26:42.245Z,2.62
2022-11-27T00:29:11.446Z,1.80
2022-11-27T00:31:40.055Z,1.58
2022-11-27T00:34:09.968Z,2.57
2022-11-27T00:36:41.144Z,2.54
2022-11-27T00:39:14.499Z,2.91
2022-11-27T00:41:43.040Z,2.54
2022-11-27T00:44:13.811Z,2.08
2022-11-27T00:46:42.673Z,1.71
2022-11-27T00:49:14.912Z,2.17
2022-11-27T00:51:43.829Z,2.05
2022-11-27T00:54:14.093Z,2.76
2022-11-27T00:56:42.684Z,2.03
2022-11-27T00:59:12.129Z,2.16
2022-11-27T01:01:44.113Z,3.02
2022-11-27T01:04:15.620Z,3.02
2022-11-27T01:06:45.305Z,3.86
2022-11-27T01:09:16.503Z,2.89
2022-11-27T01:11:45.294Z,3.50
2022-11-27T01:14:18.177Z,2.21
2022-11-27T01:16:47.019Z,2.43
2022-11-27T01:19:17.983Z,1.80
2022-11-27T01:21:46.989Z,1.66
2022-11-27T01:24:18.245Z,1.36
2022-11-27T01:26:46.927Z,1.44
2022-11-27T01:29:16.248Z,1.20
2022-11-27T01:31:44.963Z,1.27
2022-11-27T01:34:17.763Z,1.66
2022-11-27T01:36:46.552Z,2.63
2022-11-27T01:39:19.882Z,1.90
2022-11-27T01:41:49.477Z,2.06
2022-11-27T01:44:53.385Z,1.54
2022-11-27T01:47:44.789Z,1.26
2022-11-27T01:50:22.959Z,1.24
2022-11-27T01:52:56.878Z,1.09
2022-11-27T01:55:36.656Z,1.38
2022-11-27T01:58:11.651Z,1.17
2022-11-27T02:00:41.145Z,1.05
2022-11-27T02:03:10.322Z,1.01
2022-11-27T02:05:39.482Z,1.26
2022-11-27T02:08:11.970Z,1.35
2022-11-27T02:10:52.873Z,1.06
2022-11-27T02:13:30.660Z,1.13
2022-11-27T02:16:17.630Z,1.58
2022-11-27T02:18:58.516Z,1.35
2022-11-27T02:21:40.018Z,1.35
2022-11-27T02:24:43.314Z,2.45
2022-11-27T02:27:52.339Z,1.45
2022-11-27T02:30:22.470Z,2.03
2022-11-27T02:32:59.362Z,1.53
2022-11-27T02:35:36.535Z,1.39
2022-11-27T02:38:13.970Z,1.39
2022-11-27T02:40:52.223Z,1.07
2022-11-27T02:43:29.525Z,1.11
2022-11-27T02:46:02.475Z,1.41
2022-11-27T02:48:36.757Z,1.14
2022-11-27T02:51:08.047Z,1.43
2022-11-27T02:53:44.113Z,1.26
2022-11-27T02:56:19.461Z,1.15
2022-11-27T02:58:51.132Z,1.09
2022-11-27T03:01:24.573Z,1.06
2022-11-27T03:03:58.980Z,1.06
2022-11-27T03:06:34.685Z,1.34
2022-11-27T03:09:11.234Z,1.19
2022-11-27T03:11:40.428Z,1.08
2022-11-27T03:14:12.656Z,1.06
2022-11-27T03:17:00.973Z,1.09
2022-11-27T03:19:40.368Z,1.07
2022-11-27T03:22:08.978Z,1.04
2022-11-27T03:24:38.121Z,1.01
2022-11-27T03:27:07.512Z,1.14
2022-11-27T03:29:42.397Z,1.13
2022-11-27T03:32:12.768Z,1.16
2022-11-27T03:34:42.750Z,1.08
2022-11-27T03:37:11.795Z,1.16
2022-11-27T03:39:41.107Z,1.11
2022-11-27T03:42:23.932Z,1.09
2022-11-27T03:45:09.080Z,1.09
2022-11-27T03:47:57.300Z,1.23
2022-11-27T03:50:41.863Z,1.21
2022-11-27T03:53:23.022Z,1.42
2022-11-27T03:55:59.478Z,1.17
2022-11-27T03:58:36.609Z,1.05
2022-11-27T04:01:12.459Z,1.04
2022-11-27T04:03:42.475Z,1.02
2022-11-27T04:06:11.796Z,1.15
2022-11-27T04:08:41.479Z,1.06
2022-11-27T04:11:10.305Z,1.04
2022-11-27T04:13:38.912Z,1.09
2022-11-27T04:16:09.097Z,1.09
2022-11-27T04:18:37.784Z,1.07
2022-11-27T04:21:08.090Z,1.09
2022-11-27T04:23:37.725Z,1.10
2022-11-27T04:26:06.843Z,1.16
2022-11-27T04:28:35.473Z,1.11
2022-11-27T04:31:04.486Z,1.14
2022-11-27T04:33:34.631Z,1.17
2022-11-27T04:36:03.606Z,1.17
2022-11-27T04:38:33.487Z,1.12
2022-11-27T04:41:02.598Z,1.12
2022-11-27T04:43:31.197Z,1.11
2022-11-27T04:46:00.043Z,1.12
2022-11-27T04:48:28.586Z,1.10
2022-11-27T04:50:57.461Z,1.12
2022-11-27T04:53:26.107Z,1.09
2022-11-27T04:55:56.292Z,1.11
2022-11-27T04:58:24.859Z,1.15
2022-11-27T05:00:53.814Z,1.15
2022-11-27T05:03:22.385Z,1.18
2022-11-27T05:05:57.408Z,1.37
2022-11-27T05:08:27.048Z,1.42
2022-11-27T05:11:05.813Z,1.23
2022-11-27T05:13:35.139Z,1.21
2022-11-27T05:16:04.373Z,1.20
2022-11-27T05:18:33.269Z,1.20
2022-11-27T05:21:05.376Z,1.18
2022-11-27T05:23:34.981Z,1.17
2022-11-27T05:26:05.259Z,1.19
2022-11-27T05:28:34.270Z,1.18
2022-11-27T05:31:03.187Z,1.18
2022-11-27T05:33:31.826Z,1.20
2022-11-27T05:36:00.654Z,1.21
2022-11-27T05:38:29.262Z,1.23
2022-11-27T05:40:58.247Z,1.25
2022-11-27T05:43:28.128Z,1.43
2022-11-27T05:45:56.963Z,1.38
2022-11-27T05:48:25.501Z,1.35
2022-11-27T05:50:54.379Z,1.56
2022-11-27T05:53:22.918Z,1.52
2022-11-27T05:55:51.910Z,1.52
2022-11-27T05:58:20.450Z,1.38
2022-11-27T06:00:50.767Z,1.35
2022-11-27T06:03:19.417Z,1.28
2022-11-27T06:05:48.325Z,1.25
2022-11-27T06:08:16.927Z,1.24
2022-11-27T06:10:45.756Z,1.26
2022-11-27T06:13:15.179Z,1.28
2022-11-27T06:15:44.133Z,1.29
2022-11-27T06:18:14.058Z,1.27
2022-11-27T06:20:45.310Z,1.29
2022-11-27T06:23:15.422Z,1.30
2022-11-27T06:25:44.223Z,1.27
2022-11-27T06:28:12.833Z,1.31
2022-11-27T06:30:41.695Z,1.33
2022-11-27T06:33:10.481Z,1.35
2022-11-27T06:35:40.643Z,1.36
2022-11-27T06:38:09.207Z,1.34
2022-11-27T06:40:38.083Z,1.34
2022-11-27T06:43:06.710Z,1.36
2022-11-27T06:45:35.597Z,1.36
2022-11-27T06:48:04.204Z,1.36
2022-11-27T06:50:33.041Z,1.39
2022-11-27T06:53:02.982Z,1.41
2022-11-27T06:55:31.930Z,1.44
2022-11-27T06:58:00.464Z,1.47
2022-11-27T07:00:29.346Z,1.48
2022-11-27T07:02:57.967Z,1.42
2022-11-27T07:05:26.996Z,1.42
2022-11-27T07:07:55.650Z,1.46
2022-11-27T07:10:25.909Z,1.50
2022-11-27T07:12:54.503Z,1.53
2022-11-27T07:15:23.360Z,1.54
2022-11-27T07:17:51.903Z,1.59
2022-11-27T07:20:20.797Z,1.52
2022-11-27T07:22:49.340Z,1.59
2022-11-27T07:25:18.449Z,1.57
2022-11-27T07:27:48.466Z,1.59
2022-11-27T07:30:17.681Z,1.59
2022-11-27T07:32:47.335Z,1.61
2022-11-27T07:35:16.333Z,1.65
2022-11-27T07:37:44.887Z,1.67
2022-11-27T07:40:15.169Z,1.67
2022-11-27T07:42:43.792Z,1.68
2022-11-27T07:45:14.406Z,1.74
2022-11-27T07:47:43.052Z,1.76
2022-11-27T07:50:13.376Z,1.77
2022-11-27T07:52:42.453Z,1.83
2022-11-27T07:55:11.777Z,1.89
2022-11-27T07:57:42.399Z,1.93
2022-11-27T08:00:14.319Z,2.02
2022-11-27T08:02:42.948Z,2.01
2022-11-27T08:05:13.237Z,2.03
2022-11-27T08:07:42.236Z,2.07
2022-11-27T08:10:11.436Z,2.09
2022-11-27T08:12:40.017Z,2.19
2022-11-27T08:15:10.929Z,2.17
2022-11-27T08:17:41.177Z,2.17
2022-11-27T08:20:11.004Z,2.12
2022-11-27T08:22:39.659Z,2.14
2022-11-27T08:25:10.041Z,2.57
2022-11-27T08:27:38.640Z,3.28
2022-11-27T08:30:09.584Z,2.61
2022-11-27T08:32:43.020Z,2.48
2022-11-27T08:35:13.035Z,2.49
2022-11-27T08:37:41.830Z,2.48
2022-11-27T08:40:12.191Z,2.50
2022-11-27T08:42:40.850Z,3.11
2022-11-27T08:45:11.279Z,3.07
2022-11-27T08:47:42.294Z,3.09
2022-11-27T08:50:11.647Z,3.10
2022-11-27T08:52:40.357Z,2.83
2022-11-27T08:55:10.279Z,2.75
2022-11-27T08:57:38.860Z,2.73
2022-11-27T09:00:09.556Z,2.83
2022-11-27T09:02:38.178Z,4.18
2022-11-27T09:05:09.662Z,3.66
2022-11-27T09:07:38.386Z,3.18
2022-11-27T09:10:09.398Z,3.82
2022-11-27T09:12:43.007Z,3.39
2022-11-27T09:15:13.643Z,3.26
2022-11-27T09:17:42.275Z,3.34
2022-11-27T09:20:14.379Z,3.65
2022-11-27T09:22:43.220Z,3.62
2022-11-27T09:25:12.055Z,3.58
2022-11-27T09:27:40.637Z,3.51
2022-11-27T09:30:11.103Z,3.92
2022-11-27T09:32:39.719Z,3.89
2022-11-27T09:35:09.712Z,3.67
2022-11-27T09:37:39.824Z,3.99
2022-11-27T09:40:15.063Z,4.15
2022-11-27T09:42:54.715Z,3.49
2022-11-27T09:45:26.407Z,3.67
2022-11-27T09:48:00.132Z,3.85
2022-11-27T09:50:33.101Z,3.55
2022-11-27T09:53:15.166Z,3.82
2022-11-27T09:55:49.207Z,4.04
2022-11-27T09:58:23.179Z,4.18
2022-11-27T10:00:52.034Z,4.44
2022-11-27T10:03:27.238Z,5.39
2022-11-27T10:06:12.857Z,4.26
2022-11-27T10:09:00.562Z,4.08
2022-11-27T10:11:38.208Z,4.20
2022-11-27T10:14:34.222Z,4.66
2022-11-27T10:17:15.610Z,4.14
2022-11-27T10:19:54.199Z,4.92
2022-11-27T10:22:31.719Z,4.63
2022-11-27T10:25:16.542Z,4.11
2022-11-27T10:28:00.538Z,5.31
2022-11-27T10:30:33.712Z,4.38
2022-11-27T10:33:05.294Z,5.84
2022-11-27T10:35:34.513Z,4.64
2022-11-27T10:38:11.639Z,4.84
2022-11-27T10:40:47.997Z,5.37
2022-11-27T10:43:22.247Z,4.65
2022-11-27T10:45:55.125Z,5.23
2022-11-27T10:48:25.227Z,4.98
2022-11-27T10:50:53.750Z,4.87
2022-11-27T10:53:30.295Z,6.11
2022-11-27T10:56:26.657Z,6.01
2022-11-27T10:59:01.599Z,5.10
2022-11-27T11:01:44.283Z,4.82
2022-11-27T11:04:36.886Z,6.85
2022-11-27T11:07:05.514Z,5.29
2022-11-27T11:09:37.017Z,5.09
2022-11-27T11:12:18.561Z,5.77
2022-11-27T11:14:53.984Z,7.05
2022-11-27T11:17:28.169Z,5.83
2022-11-27T11:19:57.072Z,5.09
2022-11-27T11:22:25.845Z,4.63
2022-11-27T11:24:55.632Z,4.48
2022-11-27T11:27:30.906Z,5.32
2022-11-27T11:30:03.225Z,5.51
2022-11-27T11:32:37.877Z,4.71
2022-11-27T11:35:24.269Z,4.53
2022-11-27T11:37:54.610Z,4.78
2022-11-27T11:40:30.178Z,6.08
2022-11-27T11:43:02.749Z,5.79
2022-11-27T11:45:34.278Z,4.81
2022-11-27T11:48:21.549Z,4.84
2022-11-27T11:50:56.729Z,5.65
2022-11-27T11:53:37.527Z,5.68
2022-11-27T11:56:27.607Z,6.35
2022-11-27T11:59:03.156Z,6.95
2022-11-27T12:01:56.604Z,5.30
2022-11-27T12:04:52.287Z,4.71
2022-11-27T12:07:41.334Z,4.53
2022-11-27T12:10:20.326Z,4.95
2022-11-27T12:13:02.955Z,5.08
2022-11-27T12:15:40.509Z,5.13
2022-11-27T12:18:20.089Z,4.83
2022-11-27T12:21:08.121Z,4.65
2022-11-27T12:23:59.324Z,5.21
2022-11-27T12:26:48.161Z,5.67
2022-11-27T12:29:55.680Z,4.79
2022-11-27T12:32:57.280Z,4.75
2022-11-27T12:35:34.038Z,4.79
2022-11-27T12:38:23.375Z,5.10
2022-11-27T12:41:17.315Z,4.73
2022-11-27T12:43:52.059Z,5.15
2022-11-27T12:46:31.238Z,4.90
2022-11-27T12:49:13.601Z,4.64
2022-11-27T12:51:52.104Z,4.54
2022-11-27T12:54:28.297Z,4.49
2022-11-27T12:57:03.436Z,4.44
2022-11-27T12:59:38.955Z,4.62
2022-11-27T13:02:29.376Z,4.55
2022-11-27T13:05:05.496Z,4.49
2022-11-27T13:07:45.380Z,5.04
2022-11-27T13:10:24.049Z,4.62
2022-11-27T13:13:06.142Z,4.76
2022-11-27T13:15:42.193Z,4.54
2022-11-27T13:18:21.057Z,4.48
2022-11-27T13:20:53.175Z,4.42
2022-11-27T13:23:22.915Z,4.44
2022-11-27T13:25:57.034Z,4.47
2022-11-27T13:28:36.418Z,4.46
2022-11-27T13:31:07.645Z,4.46
2022-11-27T13:33:42.167Z,4.48
2022-11-27T13:36:25.947Z,4.53
2022-11-27T13:38:59.873Z,4.49
2022-11-27T13:41:35.867Z,4.51
2022-11-27T13:44:11.419Z,5.05
2022-11-27T13:46:49.462Z,5.44
2022-11-27T13:49:27.547Z,4.82
2022-11-27T13:52:11.657Z,6.11
2022-11-27T13:54:52.189Z,5.25
2022-11-27T13:57:21.952Z,5.01
2022-11-27T14:00:00.679Z,4.91
2022-11-27T14:02:43.810Z,5.58
2022-11-27T14:05:15.042Z,5.08
2022-11-27T14:07:48.882Z,4.69
2022-11-27T14:10:23.236Z,4.55
2022-11-27T14:12:57.684Z,4.47
2022-11-27T14:15:29.631Z,4.34
2022-11-27T14:18:09.524Z,4.27
2022-11-27T14:20:49.895Z,4.18
2022-11-27T14:23:31.753Z,4.09
2022-11-27T14:26:19.944Z,4.04
2022-11-27T14:28:55.134Z,4.00
2022-11-27T14:31:30.041Z,4.02
2022-11-27T14:34:16.036Z,3.97
2022-11-27T14:36:46.577Z,3.91
2022-11-27T14:39:25.269Z,3.86
2022-11-27T14:42:02.174Z,3.85
2022-11-27T14:44:31.645Z,3.78
2022-11-27T14:47:06.529Z,3.75
2022-11-27T14:49:35.606Z,3.71
2022-11-27T14:52:15.220Z,3.71
2022-11-27T14:54:46.269Z,3.65
2022-11-27T14:57:23.508Z,3.69
2022-11-27T15:00:16.632Z,3.71
2022-11-27T15:02:46.655Z,3.71
2022-11-27T15:05:23.023Z,3.72
2022-11-27T15:07:55.544Z,3.68
2022-11-27T15:10:37.226Z,3.68
2022-11-27T15:13:09.735Z,3.65
2022-11-27T15:15:44.280Z,3.72
2022-11-27T15:18:23.933Z,3.67
2022-11-27T15:20:53.941Z,3.61
2022-11-27T15:23:28.163Z,3.59
2022-11-27T15:26:15.814Z,3.54
2022-11-27T15:28:54.427Z,3.50
2022-11-27T15:31:31.081Z,3.46
2022-11-27T15:34:06.715Z,3.47
2022-11-27T15:36:43.517Z,3.42
2022-11-27T15:39:21.891Z,3.42
2022-11-27T15:42:00.699Z,3.39
2022-11-27T15:44:32.476Z,3.32
2022-11-27T15:47:03.944Z,3.35
2022-11-27T15:49:34.025Z,3.34
2022-11-27T15:52:02.718Z,3.31
2022-11-27T15:54:31.561Z,3.31
2022-11-27T15:57:01.543Z,3.32
2022-11-27T15:59:30.475Z,3.27
2022-11-27T16:01:59.173Z,3.25
2022-11-27T16:04:28.347Z,3.24
2022-11-27T16:06:57.022Z,3.22
2022-11-27T16:09:26.000Z,3.21
2022-11-27T16:11:54.616Z,3.20
2022-11-27T16:14:25.360Z,3.17
2022-11-27T16:16:54.048Z,3.16
2022-11-27T16:19:23.028Z,3.14
2022-11-27T16:21:51.620Z,3.13
2022-11-27T16:24:20.814Z,3.08
2022-11-27T16:26:49.608Z,3.05
2022-11-27T16:29:18.559Z,3.04
2022-11-27T16:31:48.882Z,3.05
2022-11-27T16:34:18.702Z,3.05
2022-11-27T16:36:48.512Z,3.02
2022-11-27T16:39:18.955Z,3.03
2022-11-27T16:41:47.703Z,3.04
2022-11-27T16:44:17.333Z,3.02
2022-11-27T16:46:46.062Z,3.02
2022-11-27T16:49:16.520Z,3.02
2022-11-27T16:51:46.261Z,2.99
2022-11-27T16:54:15.889Z,2.98
2022-11-27T16:56:45.404Z,2.98
2022-11-27T16:59:16.896Z,2.97
2022-11-27T17:01:46.239Z,2.96
2022-11-27T17:04:21.844Z,2.96
2022-11-27T17:06:51.148Z,2.95
2022-11-27T17:09:20.537Z,2.94
2022-11-27T17:11:50.221Z,2.96
2022-11-27T17:14:20.807Z,3.09
2022-11-27T17:16:50.897Z,3.09
2022-11-27T17:19:26.371Z,2.98
2022-11-27T17:21:55.134Z,2.95
2022-11-27T17:24:25.736Z,2.94
2022-11-27T17:26:55.479Z,3.03
2022-11-27T17:29:33.837Z,2.96
2022-11-27T17:32:07.353Z,2.91
2022-11-27T17:34:37.910Z,2.91
2022-11-27T17:37:07.386Z,2.90
2022-11-27T17:39:36.298Z,2.91
2022-11-27T17:42:08.755Z,2.91
2022-11-27T17:44:40.545Z,2.89
2022-11-27T17:47:09.187Z,2.88
2022-11-27T17:49:40.031Z,2.94
2022-11-27T17:52:09.342Z,2.92
2022-11-27T17:54:39.802Z,2.93
2022-11-27T17:57:08.385Z,2.95
2022-11-27T17:59:37.315Z,2.99
2022-11-27T18:02:05.909Z,2.99
2022-11-27T18:04:36.189Z,3.12
2022-11-27T18:07:06.297Z,3.26
2022-11-27T18:09:35.271Z,3.10
2022-11-27T18:12:06.388Z,3.02
2022-11-27T18:14:35.899Z,2.95
2022-11-27T18:17:07.123Z,2.97
2022-11-27T18:19:35.967Z,2.95
2022-11-27T18:22:08.225Z,2.98
2022-11-27T18:24:41.604Z,2.98
2022-11-27T18:27:10.590Z,3.06
2022-11-27T18:29:44.593Z,2.98
2022-11-27T18:32:15.284Z,2.96
2022-11-27T18:34:44.754Z,2.87
2022-11-27T18:37:15.109Z,2.95
2022-11-27T18:39:45.422Z,2.95
2022-11-27T18:42:14.588Z,2.93
2022-11-27T18:44:45.392Z,2.93
2022-11-27T18:47:16.195Z,2.93
2022-11-27T18:49:48.962Z,2.94
2022-11-27T18:52:19.186Z,2.91
2022-11-27T18:54:48.221Z,2.91
2022-11-27T18:57:19.129Z,2.93
2022-11-27T18:59:48.164Z,2.90
2022-11-27T19:02:17.669Z,2.91
2022-11-27T19:04:46.895Z,2.89
2022-11-27T19:07:15.578Z,2.87
2022-11-27T19:09:45.880Z,2.84
2022-11-27T19:12:14.724Z,2.83
2022-11-27T19:14:43.888Z,2.84
2022-11-27T19:17:13.030Z,2.84
2022-11-27T19:19:57.204Z,2.84
2022-11-27T19:22:27.992Z,2.84
2022-11-27T19:24:59.971Z,2.84
2022-11-27T19:27:29.403Z,2.85
2022-11-27T19:29:58.513Z,2.85
2022-11-27T19:32:27.257Z,2.82
2022-11-27T19:34:56.159Z,2.86
2022-11-27T19:37:33.910Z,2.88
2022-11-27T19:40:06.660Z,2.87
2022-11-27T19:42:35.602Z,2.88
2022-11-27T19:45:05.443Z,2.86
2022-11-27T19:47:34.139Z,2.87
2022-11-27T19:50:03.588Z,2.85
2022-11-27T19:52:34.257Z,2.86
2022-11-27T19:55:05.216Z,2.85
2022-11-27T19:57:35.645Z,2.84
2022-11-27T20:00:06.068Z,2.86
2022-11-27T20:02:42.842Z,2.84
2022-11-27T20:05:11.875Z,2.90
2022-11-27T20:07:40.631Z,2.88
2022-11-27T20:10:12.395Z,2.90
2022-11-27T20:12:41.400Z,2.90
2022-11-27T20:15:14.354Z,2.88
2022-11-27T20:17:43.750Z,2.86
2022-11-27T20:20:14.229Z,2.88
2022-11-27T20:22:43.214Z,2.85
2022-11-27T20:25:20.860Z,2.87
2022-11-27T20:27:50.806Z,2.83
2022-11-27T20:30:20.791Z,2.85
2022-11-27T20:32:49.723Z,2.87
2022-11-27T20:35:18.875Z,2.89
2022-11-27T20:37:48.329Z,2.88
2022-11-27T20:40:20.365Z,2.86
2022-11-27T20:42:49.063Z,2.87
2022-11-27T20:45:20.471Z,2.85
2022-11-27T20:47:50.917Z,2.85
2022-11-27T20:50:21.145Z,2.85
2022-11-27T20:52:50.305Z,2.79
2022-11-27T20:55:21.539Z,3.12
2022-11-27T20:57:54.582Z,2.94
2022-11-27T21:00:24.829Z,2.84
2022-11-27T21:02:53.582Z,2.87
2022-11-27T21:05:22.665Z,2.85
2022-11-27T21:07:51.540Z,2.85
2022-11-27T21:10:23.580Z,2.81
2022-11-27T21:12:52.150Z,2.79
2022-11-27T21:15:21.104Z,2.79
2022-11-27T21:17:49.898Z,2.75
2022-11-27T21:20:20.708Z,2.75
2022-11-27T21:22:49.616Z,2.72
2022-11-27T21:25:22.634Z,2.68
2022-11-27T21:27:58.009Z,2.67
2022-11-27T21:30:27.502Z,2.69
2022-11-27T21:32:56.100Z,2.71
2022-11-27T21:35:31.268Z,2.74
2022-11-27T21:38:01.707Z,2.75
2022-11-27T21:40:30.798Z,2.71
2022-11-27T21:43:00.917Z,2.75
2022-11-27T21:45:30.305Z,2.71
2022-11-27T21:47:59.378Z,2.69
2022-11-27T21:50:28.275Z,2.71
2022-11-27T21:52:57.539Z,2.72
2022-11-27T21:55:26.426Z,2.69
2022-11-27T21:57:54.989Z,2.69
2022-11-27T22:00:25.780Z,2.68
2022-11-27T22:02:54.408Z,2.65
2022-11-27T22:05:23.458Z,2.66
2022-11-27T22:07:52.041Z,2.67
2022-11-27T22:10:21.119Z,2.66
2022-11-27T22:12:49.746Z,2.66
2022-11-27T22:15:18.868Z,2.64
2022-11-27T22:17:49.410Z,2.67
2022-11-27T22:20:18.834Z,2.65
2022-11-27T22:22:47.420Z,2.61
2022-11-27T22:25:18.026Z,2.60
2022-11-27T22:27:46.635Z,2.59
2022-11-27T22:30:16.038Z,2.61
2022-11-27T22:32:44.604Z,2.65
2022-11-27T22:35:14.900Z,2.64
2022-11-27T22:37:43.739Z,2.60
2022-11-27T22:40:14.736Z,2.53
2022-11-27T22:42:43.446Z,2.51
2022-11-27T22:45:12.928Z,2.53
2022-11-27T22:47:41.589Z,2.55
2022-11-27T22:50:11.127Z,2.56
2022-11-27T22:52:41.081Z,2.55
2022-11-27T22:55:10.812Z,2.53
2022-11-27T22:57:39.480Z,2.52
2022-11-27T23:00:11.049Z,2.48
2022-11-27T23:02:40.074Z,2.54
2022-11-27T23:05:10.171Z,2.48
2022-11-27T23:07:40.186Z,2.50
2022-11-27T23:10:10.454Z,2.51
2022-11-27T23:12:39.088Z,2.51
2022-11-27T23:15:08.868Z,2.51
2022-11-27T23:17:37.447Z,2.50
2022-11-27T23:20:08.306Z,2.49
2022-11-27T23:22:37.074Z,2.50
2022-11-27T23:25:09.076Z,2.49
2022-11-27T23:27:37.662Z,2.46
2022-11-27T23:30:08.833Z,2.44
2022-11-27T23:32:39.436Z,2.41
2022-11-27T23:35:09.586Z,2.46
2022-11-27T23:37:38.191Z,2.47
2022-11-27T23:40:09.958Z,2.44
2022-11-27T23:42:38.547Z,2.41
2022-11-27T23:45:09.002Z,2.42
2022-11-27T23:47:37.787Z,2.39
2022-11-27T23:50:08.945Z,2.32
2022-11-27T23:52:37.511Z,2.34
2022-11-27T23:55:08.642Z,2.30
2022-11-27T23:57:37.262Z,2.34
